createdAt,value
2019-02-14T00:00:24.630Z,-4.40
2019-02-14T00:02:51.476Z,-4.40
2019-02-14T00:05:18.390Z,-4.30
2019-02-14T00:07:45.173Z,-4.20
2019-02-14T00:10:11.961Z,-4.30
2019-02-14T00:12:38.890Z,-4.30
2019-02-14T00:15:13.491Z,-4.10
2019-02-14T00:17:40.276Z,-4.00
2019-02-14T00:20:08.510Z,-4.10
2019-02-14T00:22:35.276Z,-4.20
2019-02-14T00:25:02.404Z,-4.10
2019-02-14T00:27:29.194Z,-4.10
2019-02-14T00:29:55.989Z,-4.10
2019-02-14T00:32:22.918Z,-4.10
2019-02-14T00:34:49.695Z,-4.10
2019-02-14T00:37:16.486Z,-4.00
2019-02-14T00:39:43.402Z,-3.90
2019-02-14T00:42:10.187Z,-3.80
2019-02-14T00:44:36.957Z,-3.80
2019-02-14T00:47:03.777Z,-3.70
2019-02-14T00:49:30.571Z,-3.60
2019-02-14T00:51:57.514Z,-3.60
2019-02-14T00:54:24.315Z,-3.70
2019-02-14T00:56:51.078Z,-3.60
2019-02-14T00:59:18.007Z,-3.60
2019-02-14T01:01:44.790Z,-3.60
2019-02-14T01:04:11.645Z,-3.50
2019-02-14T01:06:38.462Z,-3.60
2019-02-14T01:09:05.557Z,-3.60
2019-02-14T01:11:32.476Z,-3.60
2019-02-14T01:13:59.273Z,-3.60
2019-02-14T01:16:26.070Z,-3.60
2019-02-14T01:18:52.921Z,-3.50
2019-02-14T01:21:19.713Z,-3.40
2019-02-14T01:23:46.497Z,-3.40
2019-02-14T01:26:13.406Z,-3.40
2019-02-14T01:28:40.207Z,-3.30
2019-02-14T01:31:06.996Z,-3.30
2019-02-14T01:33:33.811Z,-3.30
2019-02-14T01:36:00.578Z,-3.30
2019-02-14T01:38:27.409Z,-3.30
2019-02-14T01:40:54.211Z,-3.30
2019-02-14T01:43:20.994Z,-3.40
2019-02-14T01:45:47.837Z,-3.50
2019-02-14T01:48:14.612Z,-3.40
2019-02-14T01:50:41.408Z,-3.30
2019-02-14T01:53:08.335Z,-3.40
2019-02-14T01:55:35.109Z,-3.30
2019-02-14T01:58:01.902Z,-3.30
2019-02-14T02:00:28.750Z,-3.30
2019-02-14T02:02:55.550Z,-3.30
2019-02-14T02:05:22.550Z,-3.40
2019-02-14T02:07:49.333Z,-3.40
2019-02-14T02:10:16.111Z,-3.40
2019-02-14T02:12:42.934Z,-3.40
2019-02-14T02:15:13.707Z,-3.40
2019-02-14T02:17:40.648Z,-3.40
2019-02-14T02:20:08.932Z,-3.30
2019-02-14T02:22:35.719Z,-3.40
2019-02-14T02:25:03.871Z,-3.40
2019-02-14T02:27:34.285Z,-3.40
2019-02-14T02:30:01.069Z,-3.50
2019-02-14T02:32:27.885Z,-3.50
2019-02-14T02:34:54.680Z,-3.70
2019-02-14T02:37:21.538Z,-3.60
2019-02-14T02:39:48.313Z,-3.60
2019-02-14T02:42:15.096Z,-3.70
2019-02-14T02:44:42.036Z,-3.70
2019-02-14T02:47:08.822Z,-3.60
2019-02-14T02:49:35.623Z,-3.60
2019-02-14T02:52:02.438Z,-3.70
2019-02-14T02:54:29.220Z,-3.70
2019-02-14T02:56:56.158Z,-3.70
2019-02-14T02:59:22.948Z,-3.70
2019-02-14T03:01:49.724Z,-3.70
2019-02-14T03:04:16.561Z,-3.80
2019-02-14T03:06:47.137Z,-3.80
2019-02-14T03:09:13.921Z,-3.80
2019-02-14T03:11:40.747Z,-3.80
2019-02-14T03:14:07.518Z,-3.80
2019-02-14T03:16:34.324Z,-3.80
2019-02-14T03:19:01.227Z,-3.90
2019-02-14T03:21:28.004Z,-3.90
2019-02-14T03:23:54.791Z,-3.90
2019-02-14T03:26:21.715Z,-3.90
2019-02-14T03:28:48.510Z,-4.00
2019-02-14T03:31:15.315Z,-4.00
2019-02-14T03:33:42.127Z,-3.90
2019-02-14T03:36:08.908Z,-3.90
2019-02-14T03:38:35.688Z,-4.00
2019-02-14T03:41:02.518Z,-3.90
2019-02-14T03:43:29.299Z,-4.00
2019-02-14T03:45:56.078Z,-4.00
2019-02-14T03:48:23.006Z,-3.90
2019-02-14T03:50:49.794Z,-3.90
2019-02-14T03:53:16.589Z,-3.90
2019-02-14T03:55:43.518Z,-3.90
2019-02-14T03:58:10.309Z,-3.80
2019-02-14T04:00:37.093Z,-3.70
2019-02-14T04:03:03.918Z,-3.70
2019-02-14T04:05:30.694Z,-3.70
2019-02-14T04:07:57.649Z,-3.70
2019-02-14T04:10:24.432Z,-3.70
2019-02-14T04:12:51.222Z,-3.70
2019-02-14T04:15:18.139Z,-3.70
2019-02-14T04:17:44.921Z,-3.80
2019-02-14T04:20:12.511Z,-3.80
2019-02-14T04:22:39.480Z,-3.70
2019-02-14T04:25:08.182Z,-3.80
2019-02-14T04:27:35.040Z,-3.90
2019-02-14T04:30:01.877Z,-3.90
2019-02-14T04:32:28.664Z,-3.90
2019-02-14T04:34:55.577Z,-3.90
2019-02-14T04:37:22.466Z,-3.90
2019-02-14T04:39:49.257Z,-3.90
2019-02-14T04:42:16.177Z,-4.00
2019-02-14T04:44:42.958Z,-4.10
2019-02-14T04:47:09.741Z,-4.10
2019-02-14T04:49:36.752Z,-4.20
2019-02-14T04:52:08.571Z,-4.20
2019-02-14T04:54:35.377Z,-4.20
2019-02-14T04:57:02.203Z,-4.20
2019-02-14T04:59:28.983Z,-4.30
2019-02-14T05:01:55.911Z,-4.30
2019-02-14T05:04:22.704Z,-4.40
2019-02-14T05:06:54.979Z,-4.20
2019-02-14T05:09:19.112Z,-4.30
2019-02-14T05:11:48.651Z,-4.40
2019-02-14T05:14:15.433Z,-4.20
2019-02-14T05:16:42.293Z,-4.30
2019-02-14T05:19:09.095Z,-4.40
2019-02-14T05:21:35.896Z,-4.40
2019-02-14T05:24:22.479Z,-4.30
2019-02-14T05:26:49.252Z,-4.30
2019-02-14T05:29:16.166Z,-4.30
2019-02-14T05:31:42.969Z,-4.20
2019-02-14T05:34:09.767Z,-4.30
2019-02-14T05:36:36.646Z,-4.30
2019-02-14T05:39:04.337Z,-4.30
2019-02-14T05:41:31.279Z,-4.40
2019-02-14T05:43:58.088Z,-4.40
2019-02-14T05:46:24.881Z,-4.50
2019-02-14T05:48:51.859Z,-4.50
2019-02-14T05:51:18.643Z,-4.60
2019-02-14T05:53:45.430Z,-4.50
2019-02-14T05:56:12.261Z,-4.60
2019-02-14T05:58:39.107Z,-4.60
2019-02-14T06:01:05.957Z,-4.50
2019-02-14T06:03:32.748Z,-4.60
2019-02-14T06:05:59.516Z,-4.80
2019-02-14T06:08:26.453Z,-4.80
2019-02-14T06:10:53.267Z,-4.80
2019-02-14T06:13:20.051Z,-4.70
2019-02-14T06:15:46.960Z,-4.70
2019-02-14T06:18:13.753Z,-4.70
2019-02-14T06:20:40.613Z,-4.70
2019-02-14T06:23:07.391Z,-4.60
2019-02-14T06:25:34.176Z,-4.70
2019-02-14T06:28:00.985Z,-4.80
2019-02-14T06:30:28.679Z,-4.80
2019-02-14T06:32:55.655Z,-4.80
2019-02-14T06:35:22.455Z,-5.00
2019-02-14T06:37:49.231Z,-5.10
2019-02-14T06:40:16.069Z,-5.00
2019-02-14T06:42:42.843Z,-5.00
2019-02-14T06:45:12.696Z,-4.90
2019-02-14T06:47:39.468Z,-5.00
2019-02-14T06:50:07.878Z,-4.90
2019-02-14T06:52:34.703Z,-5.00
2019-02-14T06:55:01.476Z,-4.90
2019-02-14T06:57:28.317Z,-5.00
2019-02-14T06:59:55.111Z,-5.10
2019-02-14T07:02:21.900Z,-5.10
2019-02-14T07:04:48.802Z,-5.00
2019-02-14T07:07:18.551Z,-5.10
2019-02-14T07:09:44.193Z,-5.00
2019-02-14T07:12:11.055Z,-5.20
2019-02-14T07:14:37.846Z,-5.10
2019-02-14T07:17:04.771Z,-5.20
2019-02-14T07:19:31.553Z,-5.20
2019-02-14T07:21:59.195Z,-5.30
2019-02-14T07:24:26.131Z,-5.20
2019-02-14T07:26:52.972Z,-5.10
2019-02-14T07:29:19.762Z,-5.00
2019-02-14T07:31:46.608Z,-4.90
2019-02-14T07:34:13.402Z,-4.90
2019-02-14T07:36:40.325Z,-5.00
2019-02-14T07:39:07.106Z,-5.10
2019-02-14T07:41:33.885Z,-5.00
2019-02-14T07:44:00.716Z,-4.90
2019-02-14T07:46:27.491Z,-4.80
2019-02-14T07:48:54.346Z,-4.70
2019-02-14T07:51:21.134Z,-4.60
2019-02-14T07:53:47.920Z,-4.50
2019-02-14T07:56:14.756Z,-4.50
2019-02-14T07:58:41.559Z,-4.40
2019-02-14T08:01:08.340Z,-4.40
2019-02-14T08:03:35.169Z,-4.30
2019-02-14T08:06:01.966Z,-4.10
2019-02-14T08:08:28.805Z,-4.10
2019-02-14T08:10:55.627Z,-4.10
2019-02-14T08:13:22.428Z,-4.10
2019-02-14T08:15:49.303Z,-3.90
2019-02-14T08:18:16.138Z,-3.80
2019-02-14T08:20:42.878Z,-3.60
2019-02-14T08:23:09.723Z,-3.60
2019-02-14T08:25:36.506Z,-3.50
2019-02-14T08:28:03.301Z,-3.50
2019-02-14T08:30:30.123Z,-3.40
2019-02-14T08:32:56.913Z,-3.30
2019-02-14T08:35:23.775Z,-3.20
2019-02-14T08:37:50.553Z,-3.00
2019-02-14T08:40:30.050Z,-2.90
2019-02-14T08:42:58.582Z,-2.90
2019-02-14T08:45:25.412Z,-2.80
2019-02-14T08:47:52.339Z,-2.70
2019-02-14T08:50:19.124Z,-2.60
2019-02-14T08:52:46.852Z,-2.50
2019-02-14T08:55:13.678Z,-2.50
2019-02-14T08:57:40.465Z,-2.50
2019-02-14T09:00:15.855Z,-2.40
2019-02-14T09:02:42.633Z,-2.30
2019-02-14T09:05:09.431Z,-2.20
2019-02-14T09:07:36.277Z,-2.20
2019-02-14T09:10:07.766Z,-2.10
2019-02-14T09:12:35.651Z,-2.00
2019-02-14T09:15:05.346Z,-1.90
2019-02-14T09:17:32.144Z,-1.80
2019-02-14T09:19:58.932Z,-1.70
2019-02-14T09:22:25.778Z,-1.60
2019-02-14T09:24:52.579Z,-1.60
2019-02-14T09:27:19.349Z,-1.50
2019-02-14T09:29:46.253Z,-1.50
2019-02-14T09:32:13.048Z,-1.40
2019-02-14T09:34:39.823Z,-1.30
2019-02-14T09:37:06.678Z,-1.10
2019-02-14T09:39:40.811Z,-1.10
2019-02-14T09:42:02.050Z,-1.00
2019-02-14T09:44:28.910Z,-0.80
2019-02-14T09:46:55.710Z,-0.80
2019-02-14T09:49:22.489Z,-0.70
2019-02-14T09:51:49.328Z,-0.60
2019-02-14T09:54:16.155Z,-0.50
2019-02-14T09:56:42.996Z,-0.50
2019-02-14T09:59:09.781Z,-0.40
2019-02-14T10:01:36.562Z,-0.40
2019-02-14T10:04:03.498Z,-0.30
2019-02-14T10:06:36.454Z,-0.30
2019-02-14T10:09:00.644Z,-0.20
2019-02-14T10:11:27.606Z,-0.10
2019-02-14T10:13:54.440Z,0.00
2019-02-14T10:16:21.250Z,0.10
2019-02-14T10:18:48.102Z,0.10
2019-02-14T10:21:14.881Z,0.20
2019-02-14T10:23:41.678Z,0.30
2019-02-14T10:26:08.540Z,0.40
2019-02-14T10:28:35.343Z,0.40
2019-02-14T10:31:02.112Z,0.50
2019-02-14T10:33:28.963Z,0.50
2019-02-14T10:35:55.759Z,0.70
2019-02-14T10:38:22.858Z,0.70
2019-02-14T10:40:49.661Z,0.80
2019-02-14T10:43:16.451Z,0.90
2019-02-14T10:45:43.274Z,1.00
2019-02-14T10:48:10.073Z,1.00
2019-02-14T10:50:39.235Z,1.10
2019-02-14T10:53:08.013Z,1.20
2019-02-14T10:55:34.851Z,1.20
2019-02-14T10:58:07.930Z,1.40
2019-02-14T11:00:30.714Z,1.30
2019-02-14T11:02:57.498Z,1.30
2019-02-14T11:05:24.433Z,1.40
2019-02-14T11:07:51.211Z,1.40
2019-02-14T11:10:17.998Z,1.50
2019-02-14T11:12:44.939Z,1.60
2019-02-14T11:15:20.793Z,1.60
2019-02-14T11:17:49.034Z,1.60
2019-02-14T11:20:17.845Z,1.60
2019-02-14T11:22:44.614Z,1.60
2019-02-14T11:25:16.880Z,1.80
2019-02-14T11:27:44.043Z,1.90
2019-02-14T11:30:13.245Z,1.90
2019-02-14T11:32:40.177Z,1.90
2019-02-14T11:35:09.126Z,2.00
2019-02-14T11:37:35.905Z,2.10
2019-02-14T11:40:04.544Z,2.10
2019-02-14T11:42:31.332Z,2.20
2019-02-14T11:44:58.182Z,2.30
2019-02-14T11:47:24.980Z,2.30
2019-02-14T11:49:51.762Z,2.40
2019-02-14T11:52:18.617Z,2.50
2019-02-14T11:54:45.476Z,2.60
2019-02-14T11:57:12.245Z,2.80
2019-02-14T11:59:40.527Z,3.10
2019-02-14T12:02:07.417Z,3.60
2019-02-14T12:04:34.194Z,4.10
2019-02-14T12:07:01.011Z,4.80
2019-02-14T12:09:27.786Z,5.50
2019-02-14T12:11:54.693Z,6.30
2019-02-14T12:14:21.480Z,7.00
2019-02-14T12:16:48.312Z,7.70
2019-02-14T12:19:15.259Z,8.30
2019-02-14T12:21:42.055Z,8.50
2019-02-14T12:24:08.830Z,9.50
2019-02-14T12:26:35.809Z,9.70
2019-02-14T12:29:02.570Z,10.50
2019-02-14T12:31:29.363Z,10.50
2019-02-14T12:33:56.279Z,11.10
2019-02-14T12:36:23.065Z,11.60
2019-02-14T12:38:49.838Z,11.40
2019-02-14T12:41:16.770Z,11.10
2019-02-14T12:43:43.577Z,11.50
2019-02-14T12:46:10.310Z,11.10
2019-02-14T12:48:37.233Z,11.50
2019-02-14T12:51:04.013Z,11.80
2019-02-14T12:53:30.800Z,11.70
2019-02-14T12:55:57.760Z,11.60
2019-02-14T12:58:24.531Z,11.70
2019-02-14T13:00:51.340Z,11.60
2019-02-14T13:03:18.181Z,11.40
2019-02-14T13:05:45.179Z,12.00
2019-02-14T13:08:12.062Z,11.70
2019-02-14T13:10:38.872Z,11.80
2019-02-14T13:13:05.648Z,11.40
2019-02-14T13:15:32.886Z,11.30
2019-02-14T13:17:59.705Z,11.50
2019-02-14T13:20:26.486Z,11.50
2019-02-14T13:22:53.313Z,11.50
2019-02-14T13:25:20.101Z,11.60
2019-02-14T13:27:46.953Z,11.30
2019-02-14T13:30:20.719Z,11.10
2019-02-14T13:32:47.600Z,10.70
2019-02-14T13:35:14.466Z,10.30
2019-02-14T13:37:41.334Z,9.30
2019-02-14T13:40:08.080Z,8.80
2019-02-14T13:42:35.015Z,7.90
2019-02-14T13:45:01.811Z,7.20
2019-02-14T13:47:28.593Z,6.90
2019-02-14T13:49:55.453Z,6.50
2019-02-14T13:52:22.246Z,6.10
2019-02-14T13:54:49.036Z,5.80
2019-02-14T13:57:15.853Z,5.80
2019-02-14T13:59:42.631Z,5.60
2019-02-14T14:02:09.456Z,5.50
2019-02-14T14:04:36.245Z,5.40
2019-02-14T14:07:03.013Z,5.20
2019-02-14T14:09:38.233Z,5.00
2019-02-14T14:11:58.439Z,4.80
2019-02-14T14:14:36.379Z,4.70
2019-02-14T14:17:09.817Z,4.50
2019-02-14T14:19:42.980Z,4.30
2019-02-14T14:22:12.497Z,4.30
2019-02-14T14:24:44.510Z,4.20
2019-02-14T14:27:15.179Z,4.00
2019-02-14T14:29:49.599Z,4.00
2019-02-14T14:32:16.389Z,3.90
2019-02-14T14:34:44.275Z,3.80
2019-02-14T14:37:12.747Z,3.70
2019-02-14T14:39:47.588Z,3.70
2019-02-14T14:42:08.225Z,3.60
2019-02-14T14:44:35.008Z,3.50
2019-02-14T14:47:01.818Z,3.50
2019-02-14T14:49:28.652Z,3.40
2019-02-14T14:51:55.447Z,3.40
2019-02-14T14:54:22.410Z,3.50
2019-02-14T14:56:49.186Z,3.50
2019-02-14T14:59:15.992Z,3.40
2019-02-14T15:01:42.907Z,3.40
2019-02-14T15:04:09.702Z,3.30
2019-02-14T15:06:36.482Z,3.20
2019-02-14T15:09:05.202Z,3.10
2019-02-14T15:11:31.984Z,3.10
2019-02-14T15:14:10.766Z,3.00
2019-02-14T15:16:36.728Z,2.90
2019-02-14T15:19:03.642Z,2.80
2019-02-14T15:21:30.507Z,2.80
2019-02-14T15:23:57.315Z,2.80
2019-02-14T15:26:24.083Z,2.80
2019-02-14T15:28:51.059Z,2.60
2019-02-14T15:31:17.847Z,2.50
2019-02-14T15:33:44.634Z,2.50
2019-02-14T15:36:11.464Z,2.40
2019-02-14T15:38:38.232Z,2.30
2019-02-14T15:41:05.091Z,2.30
2019-02-14T15:43:31.896Z,2.20
2019-02-14T15:45:58.688Z,2.10
2019-02-14T15:48:25.640Z,2.10
2019-02-14T15:50:54.365Z,2.00
2019-02-14T15:53:21.560Z,2.00
2019-02-14T15:55:48.654Z,2.00
2019-02-14T15:58:15.433Z,2.00
2019-02-14T16:00:42.231Z,1.80
2019-02-14T16:03:09.072Z,1.90
2019-02-14T16:05:38.491Z,1.90
2019-02-14T16:08:06.384Z,1.80
2019-02-14T16:10:33.207Z,1.90
2019-02-14T16:13:01.810Z,1.90
2019-02-14T16:15:30.542Z,1.80
2019-02-14T16:17:58.919Z,1.90
2019-02-14T16:20:25.948Z,1.70
2019-02-14T16:22:52.832Z,1.70
2019-02-14T16:25:19.629Z,1.60
2019-02-14T16:27:48.096Z,1.40
2019-02-14T16:30:16.603Z,1.40
2019-02-14T16:32:43.507Z,1.40
2019-02-14T16:35:10.440Z,1.40
2019-02-14T16:37:37.260Z,1.40
2019-02-14T16:40:07.957Z,1.40
2019-02-14T16:42:34.879Z,1.30
2019-02-14T16:45:01.667Z,1.30
2019-02-14T16:47:28.470Z,1.30
2019-02-14T16:49:56.584Z,1.30
2019-02-14T16:52:23.379Z,1.20
2019-02-14T16:54:50.213Z,1.10
2019-02-14T16:57:17.149Z,1.00
2019-02-14T16:59:43.921Z,1.00
2019-02-14T17:02:10.751Z,0.80
2019-02-14T17:04:37.590Z,0.70
2019-02-14T17:07:04.384Z,0.60
2019-02-14T17:09:31.303Z,0.70
2019-02-14T17:11:58.089Z,0.60
2019-02-14T17:14:24.879Z,0.50
2019-02-14T17:16:51.808Z,0.40
2019-02-14T17:19:18.729Z,0.40
2019-02-14T17:21:45.571Z,0.40
2019-02-14T17:24:12.445Z,0.30
2019-02-14T17:26:39.294Z,0.30
2019-02-14T17:29:06.072Z,0.20
2019-02-14T17:31:32.972Z,0.00
2019-02-14T17:33:59.760Z,0.00
2019-02-14T17:36:26.639Z,0.00
2019-02-14T17:38:53.673Z,-0.10
2019-02-14T17:41:20.520Z,-0.20
2019-02-14T17:43:47.427Z,-0.20
2019-02-14T17:46:14.278Z,-0.20
2019-02-14T17:48:41.074Z,-0.30
2019-02-14T17:51:08.053Z,-0.30
2019-02-14T17:53:34.865Z,-0.40
2019-02-14T17:56:01.705Z,-0.40
2019-02-14T17:58:28.738Z,-0.30
2019-02-14T18:00:55.766Z,-0.40
2019-02-14T18:03:22.985Z,-0.40
2019-02-14T18:05:49.922Z,-0.40
2019-02-14T18:08:16.897Z,-0.50
2019-02-14T18:10:43.959Z,-0.40
2019-02-14T18:13:10.898Z,-0.50
2019-02-14T18:15:37.839Z,-0.50
2019-02-14T18:18:05.009Z,-0.50
2019-02-14T18:20:32.063Z,-0.50
2019-02-14T18:22:59.024Z,-0.60
2019-02-14T18:25:26.150Z,-0.60
2019-02-14T18:27:53.196Z,-0.80
2019-02-14T18:30:20.195Z,-0.70
2019-02-14T18:32:47.360Z,-0.70
2019-02-14T18:35:14.295Z,-0.80
2019-02-14T18:37:41.416Z,-0.90
2019-02-14T18:40:09.672Z,-0.90
2019-02-14T18:42:40.818Z,-1.00
2019-02-14T18:45:11.255Z,-1.00
2019-02-14T18:47:39.884Z,-1.00
2019-02-14T18:50:11.733Z,-0.90
2019-02-14T18:52:38.570Z,-1.00
2019-02-14T18:55:08.528Z,-1.10
2019-02-14T18:57:35.460Z,-1.00
2019-02-14T19:00:05.461Z,-0.90
2019-02-14T19:02:32.507Z,-1.00
2019-02-14T19:04:59.656Z,-1.10
2019-02-14T19:07:26.797Z,-1.10
2019-02-14T19:09:53.753Z,-1.10
2019-02-14T19:12:20.697Z,-1.30
2019-02-14T19:14:47.803Z,-1.40
2019-02-14T19:17:14.846Z,-1.50
2019-02-14T19:19:41.877Z,-1.50
2019-02-14T19:22:08.968Z,-1.50
2019-02-14T19:24:36.040Z,-1.50
2019-02-14T19:27:03.193Z,-1.50
2019-02-14T19:29:30.493Z,-1.50
2019-02-14T19:31:57.439Z,-1.40
2019-02-14T19:34:24.467Z,-1.50
2019-02-14T19:36:51.581Z,-1.50
2019-02-14T19:39:18.623Z,-1.60
2019-02-14T19:41:45.671Z,-1.50
2019-02-14T19:44:12.755Z,-1.50
2019-02-14T19:46:39.893Z,-1.50
2019-02-14T19:49:07.070Z,-1.50
2019-02-14T19:51:34.209Z,-1.50
2019-02-14T19:54:01.355Z,-1.60
2019-02-14T19:56:28.412Z,-1.60
2019-02-14T19:58:55.433Z,-1.60
2019-02-14T20:01:22.466Z,-1.60
2019-02-14T20:03:49.400Z,-1.70
2019-02-14T20:06:16.587Z,-1.80
2019-02-14T20:08:43.437Z,-1.90
2019-02-14T20:11:10.499Z,-1.90
2019-02-14T20:13:37.522Z,-1.90
2019-02-14T20:16:04.915Z,-1.90
2019-02-14T20:18:32.397Z,-2.00
2019-02-14T20:20:59.313Z,-2.00
2019-02-14T20:23:26.312Z,-2.00
2019-02-14T20:25:53.409Z,-2.00
2019-02-14T20:28:20.221Z,-2.00
2019-02-14T20:30:47.245Z,-2.00
2019-02-14T20:33:14.243Z,-2.10
2019-02-14T20:35:41.177Z,-2.20
2019-02-14T20:38:08.118Z,-2.20
2019-02-14T20:40:34.916Z,-2.20
2019-02-14T20:43:01.720Z,-2.30
2019-02-14T20:45:28.550Z,-2.30
2019-02-14T20:47:56.984Z,-2.50
2019-02-14T20:50:23.932Z,-2.40
2019-02-14T20:52:50.663Z,-2.40
2019-02-14T20:55:24.861Z,-2.40
2019-02-14T20:57:51.706Z,-2.50
2019-02-14T21:00:18.478Z,-2.50
2019-02-14T21:02:45.431Z,-2.60
2019-02-14T21:05:12.171Z,-2.60
2019-02-14T21:07:38.913Z,-2.60
2019-02-14T21:10:06.437Z,-2.70
2019-02-14T21:12:33.268Z,-2.80
2019-02-14T21:14:59.995Z,-2.70
2019-02-14T21:17:26.785Z,-2.70
2019-02-14T21:19:54.962Z,-2.70
2019-02-14T21:22:21.706Z,-2.70
2019-02-14T21:24:48.605Z,-2.80
2019-02-14T21:27:15.311Z,-2.80
2019-02-14T21:29:42.037Z,-2.80
2019-02-14T21:32:08.911Z,-2.90
2019-02-14T21:34:35.640Z,-2.90
2019-02-14T21:37:02.378Z,-3.00
2019-02-14T21:39:29.191Z,-3.00
2019-02-14T21:42:17.591Z,-3.00
2019-02-14T21:44:24.459Z,-2.90
2019-02-14T21:46:51.248Z,-2.90
2019-02-14T21:49:17.990Z,-3.00
2019-02-14T21:51:44.724Z,-3.00
2019-02-14T21:54:16.701Z,-3.00
2019-02-14T21:56:40.119Z,-2.90
2019-02-14T21:59:06.862Z,-3.00
2019-02-14T22:01:33.659Z,-2.90
2019-02-14T22:04:00.348Z,-2.90
2019-02-14T22:06:27.224Z,-2.90
2019-02-14T22:08:53.932Z,-2.80
2019-02-14T22:11:20.696Z,-2.90
2019-02-14T22:13:47.551Z,-3.00
2019-02-14T22:16:14.267Z,-3.10
2019-02-14T22:18:40.986Z,-3.20
2019-02-14T22:21:07.774Z,-3.30
2019-02-14T22:23:34.507Z,-3.50
2019-02-14T22:26:06.155Z,-3.50
2019-02-14T22:28:36.904Z,-3.50
2019-02-14T22:31:03.646Z,-3.50
2019-02-14T22:33:30.436Z,-3.50
2019-02-14T22:35:57.193Z,-3.40
2019-02-14T22:38:23.911Z,-3.40
2019-02-14T22:40:50.705Z,-3.40
2019-02-14T22:43:17.516Z,-3.40
2019-02-14T22:45:44.244Z,-3.50
2019-02-14T22:48:11.051Z,-3.30
2019-02-14T22:50:37.792Z,-3.20
2019-02-14T22:53:04.519Z,-3.40
2019-02-14T22:55:31.300Z,-3.40
2019-02-14T22:57:58.035Z,-3.30
2019-02-14T23:00:47.178Z,-3.40
2019-02-14T23:03:13.995Z,-3.50
2019-02-14T23:05:40.713Z,-3.50
2019-02-14T23:08:07.591Z,-3.60
2019-02-14T23:10:34.303Z,-3.60
2019-02-14T23:13:01.048Z,-3.60
2019-02-14T23:15:27.860Z,-3.70
2019-02-14T23:17:54.609Z,-3.70
2019-02-14T23:20:21.332Z,-3.80
2019-02-14T23:22:48.111Z,-3.80
2019-02-14T23:25:14.844Z,-3.80
2019-02-14T23:27:41.752Z,-3.90
2019-02-14T23:30:10.774Z,-3.80
2019-02-14T23:32:37.515Z,-3.70
2019-02-14T23:35:04.283Z,-3.70
2019-02-14T23:37:31.026Z,-3.70
2019-02-14T23:39:57.759Z,-3.90
2019-02-14T23:42:24.624Z,-3.80
2019-02-14T23:44:51.333Z,-3.80
2019-02-14T23:47:18.076Z,-4.00
2019-02-14T23:49:44.950Z,-4.00
2019-02-14T23:52:11.624Z,-4.00
2019-02-14T23:54:38.373Z,-4.00
2019-02-14T23:57:05.243Z,-4.00
2019-02-14T23:59:31.984Z,-3.90
